createdAt,value
2019-03-21T00:01:08.865Z,69.60
2019-03-21T00:03:40.418Z,69.60
2019-03-21T00:06:13.559Z,69.50
2019-03-21T00:08:45.336Z,69.50
2019-03-21T00:11:51.826Z,69.50
2019-03-21T00:14:45.325Z,69.60
2019-03-21T00:17:18.043Z,69.60
2019-03-21T00:19:49.557Z,69.80
2019-03-21T00:22:21.102Z,69.80
2019-03-21T00:24:54.092Z,70.10
2019-03-21T00:27:25.565Z,70.00
2019-03-21T00:29:57.059Z,70.00
2019-03-21T00:32:29.732Z,70.00
2019-03-21T00:35:04.331Z,70.20
2019-03-21T00:37:35.829Z,70.20
2019-03-21T00:40:09.786Z,70.20
2019-03-21T00:42:41.295Z,70.10
2019-03-21T00:45:14.800Z,70.10
2019-03-21T00:47:46.647Z,70.10
2019-03-21T00:50:19.377Z,70.00
2019-03-21T00:52:52.465Z,69.80
2019-03-21T00:55:24.457Z,69.70
2019-03-21T00:57:58.539Z,69.60
2019-03-21T01:00:32.637Z,69.40
2019-03-21T01:03:04.356Z,69.30
2019-03-21T01:05:35.861Z,69.30
2019-03-21T01:08:07.414Z,69.20
2019-03-21T01:10:38.900Z,69.10
2019-03-21T01:13:10.313Z,69.10
2019-03-21T01:15:41.894Z,69.10
2019-03-21T01:18:13.525Z,69.10
2019-03-21T01:20:45.123Z,69.00
2019-03-21T01:23:16.547Z,69.00
2019-03-21T01:25:50.157Z,68.70
2019-03-21T01:28:22.209Z,68.60
2019-03-21T01:30:53.799Z,68.60
2019-03-21T01:33:25.391Z,68.70
2019-03-21T01:35:56.856Z,68.40
2019-03-21T01:38:28.354Z,68.50
2019-03-21T01:40:59.942Z,68.40
2019-03-21T01:43:31.568Z,68.50
2019-03-21T01:46:03.595Z,68.60
2019-03-21T01:48:35.148Z,68.40
2019-03-21T01:51:06.662Z,68.40
2019-03-21T01:53:38.121Z,68.50
2019-03-21T01:56:09.641Z,68.60
2019-03-21T01:58:42.351Z,68.60
2019-03-21T02:01:13.957Z,68.50
2019-03-21T02:03:45.388Z,68.50
2019-03-21T02:06:16.992Z,68.40
2019-03-21T02:08:48.454Z,68.20
2019-03-21T02:11:20.931Z,68.90
2019-03-21T02:13:52.483Z,68.30
2019-03-21T02:16:25.154Z,68.50
2019-03-21T02:18:56.619Z,68.50
2019-03-21T02:21:28.264Z,68.70
2019-03-21T02:23:59.716Z,68.70
2019-03-21T02:26:31.395Z,68.90
2019-03-21T02:29:02.929Z,68.90
2019-03-21T02:31:34.481Z,69.00
2019-03-21T02:34:06.339Z,69.00
2019-03-21T02:36:37.933Z,69.00
2019-03-21T02:39:09.448Z,69.00
2019-03-21T02:41:41.235Z,69.00
2019-03-21T02:44:12.882Z,69.20
2019-03-21T02:46:44.674Z,69.20
2019-03-21T02:49:16.121Z,69.20
2019-03-21T02:51:47.774Z,69.20
2019-03-21T02:54:19.203Z,69.30
2019-03-21T02:56:52.379Z,69.30
2019-03-21T02:59:23.926Z,69.30
2019-03-21T03:01:55.505Z,69.30
2019-03-21T03:04:26.927Z,69.40
2019-03-21T03:06:59.820Z,69.40
2019-03-21T03:09:33.049Z,69.50
2019-03-21T03:12:04.911Z,69.60
2019-03-21T03:14:36.450Z,69.50
2019-03-21T03:17:08.190Z,69.60
2019-03-21T03:19:39.725Z,69.60
2019-03-21T03:22:11.314Z,69.50
2019-03-21T03:24:42.856Z,69.60
2019-03-21T03:27:14.457Z,69.50
2019-03-21T03:29:45.948Z,69.60
2019-03-21T03:32:17.528Z,69.60
2019-03-21T03:34:49.528Z,69.60
2019-03-21T03:37:21.302Z,69.50
2019-03-21T03:39:53.262Z,69.50
2019-03-21T03:42:24.828Z,69.40
2019-03-21T03:44:56.285Z,69.40
2019-03-21T03:47:27.756Z,69.40
2019-03-21T03:49:59.214Z,69.40
2019-03-21T03:52:31.918Z,69.30
2019-03-21T03:55:03.662Z,69.30
2019-03-21T03:57:36.437Z,69.30
2019-03-21T04:00:09.314Z,69.30
2019-03-21T04:02:42.089Z,69.30
2019-03-21T04:05:13.718Z,69.40
2019-03-21T04:07:45.323Z,69.40
2019-03-21T04:10:22.488Z,69.60
2019-03-21T04:12:54.045Z,69.70
2019-03-21T04:15:25.860Z,69.70
2019-03-21T04:17:57.395Z,69.70
2019-03-21T04:20:30.707Z,69.70
2019-03-21T04:23:03.621Z,69.70
2019-03-21T04:25:58.813Z,69.70
2019-03-21T04:28:31.044Z,69.80
2019-03-21T04:31:03.216Z,69.80
2019-03-21T04:33:35.450Z,69.70
2019-03-21T04:36:07.291Z,69.70
2019-03-21T04:38:38.894Z,69.60
2019-03-21T04:41:11.038Z,69.60
2019-03-21T04:43:42.765Z,69.70
2019-03-21T04:46:14.424Z,69.70
2019-03-21T04:48:45.869Z,69.90
2019-03-21T04:51:17.810Z,70.00
2019-03-21T04:53:49.409Z,70.00
2019-03-21T04:56:20.884Z,69.80
2019-03-21T04:58:52.397Z,69.80
2019-03-21T05:01:23.886Z,70.00
2019-03-21T05:03:55.458Z,70.00
2019-03-21T05:06:26.989Z,70.10
2019-03-21T05:08:58.619Z,70.10
2019-03-21T05:11:30.811Z,70.00
2019-03-21T05:14:02.590Z,70.70
2019-03-21T05:16:34.158Z,70.10
2019-03-21T05:19:07.251Z,70.20
2019-03-21T05:21:38.887Z,70.20
2019-03-21T05:24:11.046Z,70.20
2019-03-21T05:26:42.801Z,70.10
2019-03-21T05:29:15.430Z,70.20
2019-03-21T05:31:46.900Z,70.10
2019-03-21T05:34:18.464Z,70.10
2019-03-21T05:36:50.720Z,69.90
2019-03-21T05:39:22.444Z,69.80
2019-03-21T05:41:53.946Z,69.60
2019-03-21T05:44:30.925Z,69.60
2019-03-21T05:47:03.768Z,69.50
2019-03-21T05:49:35.260Z,69.30
2019-03-21T05:52:08.273Z,70.00
2019-03-21T05:54:41.159Z,69.00
2019-03-21T05:57:12.861Z,68.90
2019-03-21T05:59:44.440Z,68.50
2019-03-21T06:02:16.552Z,68.60
2019-03-21T06:04:48.864Z,68.40
2019-03-21T06:07:39.686Z,68.20
2019-03-21T06:10:13.277Z,68.10
2019-03-21T06:12:43.450Z,68.00
2019-03-21T06:15:17.611Z,67.80
2019-03-21T06:18:09.475Z,67.80
2019-03-21T06:21:04.309Z,67.70
2019-03-21T06:23:50.310Z,67.60
2019-03-21T06:26:54.784Z,67.30
2019-03-21T06:29:26.844Z,67.10
2019-03-21T06:31:58.329Z,67.20
2019-03-21T06:34:30.416Z,67.00
2019-03-21T06:37:02.110Z,67.10
2019-03-21T06:39:34.229Z,66.80
2019-03-21T06:42:06.439Z,66.40
2019-03-21T06:44:38.607Z,65.70
2019-03-21T06:47:11.406Z,65.90
2019-03-21T06:49:43.574Z,65.10
2019-03-21T06:52:15.152Z,64.60
2019-03-21T06:54:47.272Z,64.40
2019-03-21T06:57:19.621Z,64.20
2019-03-21T06:59:51.256Z,63.90
2019-03-21T07:02:23.948Z,63.20
2019-03-21T07:04:55.981Z,63.10
2019-03-21T07:07:27.784Z,63.30
2019-03-21T07:09:59.903Z,63.60
2019-03-21T07:12:32.270Z,63.90
2019-03-21T07:15:04.552Z,63.70
2019-03-21T07:17:36.909Z,63.80
2019-03-21T07:20:10.175Z,63.30
2019-03-21T07:22:42.561Z,63.20
2019-03-21T07:25:14.740Z,63.20
2019-03-21T07:27:46.836Z,62.80
2019-03-21T07:30:19.102Z,62.10
2019-03-21T07:32:51.366Z,61.70
2019-03-21T07:35:24.434Z,62.60
2019-03-21T07:37:56.039Z,62.20
2019-03-21T07:40:28.096Z,61.80
2019-03-21T07:43:00.193Z,61.60
2019-03-21T07:45:32.416Z,61.00
2019-03-21T07:48:05.364Z,61.20
2019-03-21T07:50:37.066Z,60.90
2019-03-21T07:53:09.338Z,60.40
2019-03-21T07:55:41.570Z,60.10
2019-03-21T07:58:14.131Z,60.00
2019-03-21T08:00:46.176Z,59.40
2019-03-21T08:03:18.489Z,58.50
2019-03-21T08:05:50.682Z,58.50
2019-03-21T08:08:23.004Z,58.20
2019-03-21T08:10:55.529Z,57.50
2019-03-21T08:13:27.729Z,57.30
2019-03-21T08:16:01.283Z,57.60
2019-03-21T08:18:33.545Z,57.80
2019-03-21T08:21:05.545Z,57.50
2019-03-21T08:23:38.306Z,58.20
2019-03-21T08:26:10.539Z,58.40
2019-03-21T08:28:42.849Z,58.80
2019-03-21T08:31:18.638Z,59.50
2019-03-21T08:33:52.003Z,60.60
2019-03-21T08:36:24.332Z,61.90
2019-03-21T08:38:56.807Z,62.20
2019-03-21T08:41:29.437Z,63.20
2019-03-21T08:44:02.173Z,63.90
2019-03-21T08:46:34.360Z,64.30
2019-03-21T08:49:06.601Z,64.10
2019-03-21T08:51:39.323Z,64.20
2019-03-21T08:54:11.371Z,63.80
2019-03-21T08:56:43.555Z,63.00
2019-03-21T08:59:19.903Z,62.50
2019-03-21T09:01:52.618Z,62.40
2019-03-21T09:04:25.229Z,61.80
2019-03-21T09:07:00.852Z,61.80
2019-03-21T09:09:35.616Z,62.10
2019-03-21T09:12:08.344Z,61.30
2019-03-21T09:14:41.107Z,60.30
2019-03-21T09:17:13.756Z,59.90
2019-03-21T09:19:46.047Z,59.70
2019-03-21T09:22:18.197Z,60.30
2019-03-21T09:24:50.427Z,59.20
2019-03-21T09:27:22.561Z,57.40
2019-03-21T09:29:54.348Z,56.30
2019-03-21T09:32:26.494Z,56.50
2019-03-21T09:34:58.873Z,56.90
2019-03-21T09:37:31.240Z,56.50
2019-03-21T09:40:03.453Z,56.30
2019-03-21T09:42:35.005Z,56.30
2019-03-21T09:45:09.215Z,56.20
2019-03-21T09:47:41.446Z,56.10
2019-03-21T09:50:17.134Z,55.80
2019-03-21T09:52:49.399Z,56.20
2019-03-21T09:55:21.759Z,56.30
2019-03-21T09:57:54.301Z,54.70
2019-03-21T10:00:34.097Z,52.50
2019-03-21T10:03:06.422Z,51.90
2019-03-21T10:05:38.604Z,51.90
2019-03-21T10:08:10.996Z,51.40
2019-03-21T10:10:43.240Z,50.80
2019-03-21T10:13:15.355Z,50.60
2019-03-21T10:15:47.592Z,49.60
2019-03-21T10:18:19.452Z,49.20
2019-03-21T10:20:51.292Z,50.70
2019-03-21T10:23:23.407Z,50.20
2019-03-21T10:25:55.119Z,51.20
2019-03-21T10:28:26.883Z,51.90
2019-03-21T10:30:59.079Z,52.40
2019-03-21T10:33:30.822Z,53.40
2019-03-21T10:36:02.884Z,53.60
2019-03-21T10:38:34.523Z,54.00
2019-03-21T10:41:06.660Z,54.50
2019-03-21T10:43:38.881Z,54.20
2019-03-21T10:46:11.200Z,54.10
2019-03-21T10:48:43.458Z,53.90
2019-03-21T10:51:15.710Z,54.10
2019-03-21T10:53:47.802Z,53.40
2019-03-21T10:56:20.562Z,52.70
2019-03-21T10:58:52.773Z,52.00
2019-03-21T11:01:25.033Z,51.90
2019-03-21T11:03:57.145Z,53.00
2019-03-21T11:06:29.551Z,54.10
2019-03-21T11:09:01.744Z,54.50
2019-03-21T11:11:35.554Z,54.80
2019-03-21T11:14:07.353Z,55.30
2019-03-21T11:16:39.040Z,55.50
2019-03-21T11:19:11.227Z,56.10
2019-03-21T11:21:44.459Z,56.10
2019-03-21T11:24:17.751Z,57.20
2019-03-21T11:26:50.686Z,57.50
2019-03-21T11:29:22.738Z,57.60
2019-03-21T11:31:54.741Z,57.90
2019-03-21T11:34:26.918Z,57.90
2019-03-21T11:37:01.850Z,58.40
2019-03-21T11:39:34.069Z,58.40
2019-03-21T11:42:07.002Z,58.60
2019-03-21T11:44:39.649Z,59.10
2019-03-21T11:47:11.876Z,59.30
2019-03-21T11:49:44.039Z,60.10
2019-03-21T11:52:18.384Z,60.00
2019-03-21T11:54:50.071Z,60.40
2019-03-21T11:57:22.386Z,60.80
2019-03-21T11:59:54.517Z,60.40
2019-03-21T12:02:27.615Z,60.40
2019-03-21T12:04:59.692Z,60.70
2019-03-21T12:07:31.895Z,61.30
2019-03-21T12:10:03.888Z,62.00
2019-03-21T12:12:36.608Z,63.20
2019-03-21T12:15:08.576Z,63.70
2019-03-21T12:17:40.891Z,64.10
2019-03-21T12:20:13.397Z,64.70
2019-03-21T12:22:48.434Z,65.80
2019-03-21T12:25:20.507Z,66.10
2019-03-21T12:27:52.734Z,66.50
2019-03-21T12:30:32.485Z,66.90
2019-03-21T12:33:04.244Z,67.30
2019-03-21T12:35:36.326Z,67.70
2019-03-21T12:38:08.688Z,68.00
2019-03-21T12:40:40.991Z,68.50
2019-03-21T12:43:13.162Z,68.70
2019-03-21T12:45:45.637Z,68.80
2019-03-21T12:48:18.010Z,68.80
2019-03-21T12:50:49.779Z,69.10
2019-03-21T12:53:21.914Z,68.90
2019-03-21T12:55:53.997Z,69.10
2019-03-21T12:58:26.275Z,69.30
2019-03-21T13:00:58.565Z,69.60
2019-03-21T13:03:30.831Z,70.00
2019-03-21T13:06:03.049Z,70.20
2019-03-21T13:08:37.117Z,70.40
2019-03-21T13:11:09.679Z,70.50
2019-03-21T13:13:41.312Z,70.60
2019-03-21T13:16:13.248Z,70.60
2019-03-21T13:18:45.051Z,70.70
2019-03-21T13:21:17.137Z,70.90
2019-03-21T13:23:49.198Z,70.90
2019-03-21T13:26:21.382Z,70.70
2019-03-21T13:28:53.637Z,70.20
2019-03-21T13:31:25.778Z,69.80
2019-03-21T13:33:58.257Z,70.30
2019-03-21T13:36:30.477Z,69.30
2019-03-21T13:39:04.630Z,68.30
2019-03-21T13:41:37.015Z,67.80
2019-03-21T13:44:08.646Z,67.20
2019-03-21T13:46:40.742Z,67.10
2019-03-21T13:49:12.980Z,66.30
2019-03-21T13:51:44.936Z,66.30
2019-03-21T13:54:17.021Z,66.40
2019-03-21T13:56:48.675Z,66.50
2019-03-21T13:59:20.845Z,66.70
2019-03-21T14:01:52.347Z,67.30
2019-03-21T14:04:24.570Z,67.50
2019-03-21T14:06:56.718Z,67.90
2019-03-21T14:09:28.367Z,68.50
2019-03-21T14:11:59.884Z,68.80
2019-03-21T14:14:31.925Z,69.30
2019-03-21T14:17:03.665Z,69.90
2019-03-21T14:19:35.376Z,70.60
2019-03-21T14:22:07.552Z,70.80
2019-03-21T14:24:39.740Z,71.40
2019-03-21T14:27:12.356Z,71.80
2019-03-21T14:29:44.152Z,72.00
2019-03-21T14:32:16.024Z,72.20
2019-03-21T14:34:48.281Z,72.50
2019-03-21T14:37:19.860Z,72.70
2019-03-21T14:39:52.594Z,72.80
2019-03-21T14:42:24.870Z,72.70
2019-03-21T14:44:57.105Z,72.90
2019-03-21T14:47:36.019Z,72.70
2019-03-21T14:50:02.005Z,72.50
2019-03-21T14:52:34.138Z,72.10
2019-03-21T14:55:06.994Z,72.00
2019-03-21T14:57:38.562Z,71.90
2019-03-21T15:00:12.394Z,72.00
2019-03-21T15:02:44.436Z,72.10
2019-03-21T15:05:16.917Z,72.00
2019-03-21T15:07:48.617Z,71.90
2019-03-21T15:10:20.766Z,71.80
2019-03-21T15:12:53.015Z,71.70
2019-03-21T15:15:25.230Z,71.70
2019-03-21T15:17:59.081Z,71.60
2019-03-21T15:20:32.345Z,71.60
2019-03-21T15:23:05.255Z,71.50
2019-03-21T15:25:37.585Z,71.60
2019-03-21T15:28:09.664Z,71.50
2019-03-21T15:30:41.438Z,71.50
2019-03-21T15:33:13.584Z,71.40
2019-03-21T15:35:45.601Z,71.40
2019-03-21T15:38:17.786Z,71.40
2019-03-21T15:40:49.961Z,71.40
2019-03-21T15:43:21.975Z,71.50
2019-03-21T15:45:57.366Z,71.40
2019-03-21T15:48:29.032Z,71.40
2019-03-21T15:51:04.883Z,71.40
2019-03-21T15:53:34.949Z,71.30
2019-03-21T15:56:07.359Z,71.30
2019-03-21T15:58:40.243Z,71.20
2019-03-21T16:01:12.908Z,71.20
2019-03-21T16:03:45.835Z,71.10
2019-03-21T16:06:18.016Z,71.10
2019-03-21T16:08:51.176Z,70.90
2019-03-21T16:11:23.117Z,70.90
2019-03-21T16:13:56.137Z,70.80
2019-03-21T16:16:31.109Z,70.80
2019-03-21T16:19:03.776Z,70.70
2019-03-21T16:21:35.935Z,70.70
2019-03-21T16:24:08.124Z,70.50
2019-03-21T16:26:40.280Z,70.50
2019-03-21T16:29:12.492Z,70.50
2019-03-21T16:31:44.748Z,70.40
2019-03-21T16:34:16.485Z,70.20
2019-03-21T16:36:48.137Z,70.10
2019-03-21T16:39:22.923Z,70.20
2019-03-21T16:42:00.094Z,70.00
2019-03-21T16:44:31.948Z,69.90
2019-03-21T16:47:03.441Z,69.60
2019-03-21T16:49:34.948Z,69.60
2019-03-21T16:52:38.130Z,69.50
2019-03-21T16:55:42.652Z,69.30
2019-03-21T16:58:45.627Z,69.30
2019-03-21T17:01:44.211Z,69.40
2019-03-21T17:04:39.660Z,69.30
2019-03-21T17:07:47.269Z,69.40
2019-03-21T17:10:47.967Z,69.30
2019-03-21T17:13:51.244Z,69.30
2019-03-21T17:16:49.225Z,69.30
2019-03-21T17:19:58.969Z,69.30
2019-03-21T17:23:00.556Z,69.40
2019-03-21T17:26:01.174Z,69.30
2019-03-21T17:29:01.776Z,69.30
2019-03-21T17:31:57.753Z,69.30
2019-03-21T17:34:57.223Z,69.40
2019-03-21T17:37:59.740Z,69.30
2019-03-21T17:41:02.884Z,69.30
2019-03-21T17:44:03.270Z,69.30
2019-03-21T17:47:10.982Z,69.20
2019-03-21T17:50:10.889Z,69.10
2019-03-21T17:53:12.993Z,69.20
2019-03-21T17:56:09.746Z,69.00
2019-03-21T17:59:10.915Z,68.90
2019-03-21T18:02:05.524Z,68.90
2019-03-21T18:04:55.590Z,68.90
2019-03-21T18:08:04.993Z,68.90
2019-03-21T18:11:23.092Z,69.10
2019-03-21T18:14:27.564Z,69.30
2019-03-21T18:17:23.228Z,69.70
2019-03-21T18:20:21.970Z,69.90
2019-03-21T18:23:21.784Z,69.80
2019-03-21T18:26:18.695Z,69.70
2019-03-21T18:29:16.403Z,69.60
2019-03-21T18:31:50.402Z,69.20
2019-03-21T18:34:22.109Z,69.10
2019-03-21T18:36:53.927Z,69.00
2019-03-21T18:39:25.543Z,69.00
2019-03-21T18:41:57.251Z,69.00
2019-03-21T18:44:29.864Z,68.80
2019-03-21T18:47:01.567Z,68.60
2019-03-21T18:49:33.602Z,68.60
2019-03-21T18:52:05.586Z,68.50
2019-03-21T18:54:37.232Z,68.50
2019-03-21T18:57:08.749Z,68.50
2019-03-21T18:59:40.855Z,68.70
2019-03-21T19:02:13.237Z,68.60
2019-03-21T19:04:44.911Z,68.70
2019-03-21T19:07:16.746Z,68.80
2019-03-21T19:09:48.347Z,69.00
2019-03-21T19:12:20.419Z,69.20
2019-03-21T19:14:52.201Z,69.70
2019-03-21T19:17:23.797Z,68.80
2019-03-21T19:19:55.989Z,68.90
2019-03-21T19:22:28.163Z,68.90
2019-03-21T19:25:00.400Z,69.10
2019-03-21T19:27:32.171Z,69.60
2019-03-21T19:30:03.946Z,70.80
2019-03-21T19:32:35.699Z,70.60
2019-03-21T19:35:08.408Z,71.10
2019-03-21T19:37:40.053Z,71.30
2019-03-21T19:40:12.920Z,71.50
2019-03-21T19:42:44.768Z,71.90
2019-03-21T19:45:17.462Z,72.20
2019-03-21T19:47:49.753Z,72.50
2019-03-21T19:50:22.651Z,72.60
2019-03-21T19:52:55.010Z,72.90
2019-03-21T19:55:31.078Z,73.20
2019-03-21T19:58:00.757Z,73.90
2019-03-21T20:00:32.464Z,74.30
2019-03-21T20:03:04.373Z,74.50
2019-03-21T20:05:36.584Z,74.70
2019-03-21T20:08:08.730Z,74.80
2019-03-21T20:10:41.044Z,74.70
2019-03-21T20:13:13.383Z,74.40
2019-03-21T20:15:45.917Z,74.50
2019-03-21T20:18:18.243Z,74.80
2019-03-21T20:20:50.464Z,75.10
2019-03-21T20:23:22.899Z,75.40
2019-03-21T20:25:55.429Z,75.70
2019-03-21T20:28:27.171Z,75.80
2019-03-21T20:30:58.857Z,76.00
2019-03-21T20:33:31.055Z,76.00
2019-03-21T20:36:02.771Z,76.00
2019-03-21T20:38:34.726Z,76.20
2019-03-21T20:41:07.136Z,76.30
2019-03-21T20:43:39.386Z,76.30
2019-03-21T20:46:11.647Z,76.10
2019-03-21T20:48:41.052Z,76.00
2019-03-21T20:51:13.270Z,75.90
2019-03-21T20:53:46.526Z,75.90
2019-03-21T20:56:19.391Z,75.80
2019-03-21T20:58:53.498Z,75.90
2019-03-21T21:01:24.286Z,75.60
2019-03-21T21:03:56.061Z,75.50
2019-03-21T21:06:27.980Z,75.40
2019-03-21T21:08:59.518Z,75.30
2019-03-21T21:11:31.185Z,75.20
2019-03-21T21:14:04.376Z,75.30
2019-03-21T21:16:36.208Z,75.20
2019-03-21T21:19:08.367Z,75.20
2019-03-21T21:21:40.639Z,75.00
2019-03-21T21:24:12.548Z,75.10
2019-03-21T21:26:44.280Z,75.00
2019-03-21T21:29:15.749Z,74.90
2019-03-21T21:31:47.379Z,74.90
2019-03-21T21:34:18.859Z,74.70
2019-03-21T21:36:50.595Z,74.70
2019-03-21T21:39:25.097Z,74.80
2019-03-21T21:41:56.797Z,74.90
2019-03-21T21:44:28.557Z,74.90
2019-03-21T21:47:00.247Z,74.90
2019-03-21T21:49:34.769Z,74.90
2019-03-21T21:52:06.446Z,75.00
2019-03-21T21:54:38.517Z,75.10
2019-03-21T21:57:10.837Z,75.10
2019-03-21T21:59:42.467Z,75.10
2019-03-21T22:02:14.334Z,75.00
2019-03-21T22:04:47.005Z,74.90
2019-03-21T22:07:18.521Z,74.90
2019-03-21T22:09:50.520Z,75.00
2019-03-21T22:12:22.276Z,75.10
2019-03-21T22:14:53.913Z,75.00
2019-03-21T22:17:26.168Z,75.10
2019-03-21T22:19:58.341Z,74.90
2019-03-21T22:22:30.231Z,75.00
2019-03-21T22:25:01.736Z,75.10
2019-03-21T22:27:33.366Z,75.00
2019-03-21T22:30:05.125Z,75.10
2019-03-21T22:32:36.859Z,74.90
2019-03-21T22:35:08.765Z,74.90
2019-03-21T22:37:40.464Z,74.90
2019-03-21T22:40:12.137Z,74.90
2019-03-21T22:42:43.922Z,75.00
2019-03-21T22:45:15.585Z,75.10
2019-03-21T22:47:50.173Z,75.30
2019-03-21T22:50:20.495Z,75.30
2019-03-21T22:52:52.054Z,75.40
2019-03-21T22:55:23.597Z,75.50
2019-03-21T22:57:55.204Z,75.60
2019-03-21T23:00:34.978Z,75.70
2019-03-21T23:03:08.349Z,75.60
2019-03-21T23:05:40.736Z,75.70
2019-03-21T23:08:12.812Z,76.50
2019-03-21T23:10:45.226Z,75.70
2019-03-21T23:13:17.192Z,75.80
2019-03-21T23:15:48.829Z,75.80
2019-03-21T23:18:20.536Z,75.90
2019-03-21T23:20:52.578Z,75.90
2019-03-21T23:23:24.813Z,75.80
2019-03-21T23:25:58.039Z,75.70
2019-03-21T23:28:29.912Z,75.90
2019-03-21T23:31:01.754Z,75.90
2019-03-21T23:33:33.353Z,75.90
2019-03-21T23:36:05.166Z,75.60
2019-03-21T23:38:36.717Z,75.70
2019-03-21T23:41:08.450Z,75.70
2019-03-21T23:43:40.410Z,75.60
2019-03-21T23:46:12.626Z,75.70
2019-03-21T23:48:44.888Z,75.60
2019-03-21T23:51:17.130Z,75.60
2019-03-21T23:53:48.917Z,75.30
2019-03-21T23:56:20.342Z,75.40
2019-03-21T23:58:51.971Z,75.50
